KFXE/FXE METAR and TAF weather

Enter ICAO airport designator
Station Type Date Time Source
KFXE METAR 2019/06/16 11:53 UTC NOAA

KFXE 161153Z 08003KT 10SM SCT022 BKN029 27/23 A3001 RMK AO2 SLP165 T02720233 10278 20267 53007 $


Station Type Date Time Source
KFXE Decoded METAR 2019/06/16 11:53 UTC NOAA

FORT LAUDERDALE EXECUTIVE, FL, United States (KFXE) 26-12N 080-11W 6M
Jun 16, 2019 - 07:53 AM EDT / 2019.06.16 1153 UTC
Wind: from the E (080 degrees) at 3 MPH (3 KT):0
Visibility: 10 mile(s):0
Sky conditions: mostly cloudy
Temperature: 81.0 F (27.2 C)
Dew Point: 73.9 F (23.3 C)
Relative Humidity: 79%
Pressure (altimeter): 30.01 in. Hg (1016 hPa)
Pressure tendency: 0.02 inches (0.7 hPa) higher than three hours ago
ob: KFXE 161153Z 08003KT 10SM SCT022 BKN029 27/23 A3001 RMK AO2 SLP165 T02720233 10278 20267 53007
cycle: 12

Station Type Date Time Source
KFXE TAF 2019/06/16 12:42 UTC NOAA

TAF KFXE 161141Z 1612/1712 VRB04KT P6SM VCTS SCT030CB BKN080 BKN200
FM161500 13010KT P6SM VCTS SCT025CB BKN050 BKN200
FM162300 10005KT P6SM SCT020 SCT070 BKN200

Example: see airport list